Time,TemperatureF,DewpointF,PressureIn,WindDirection,WindDirectionDegrees,WindSpeedMPH,WindSpeedGustMPH,Humidity,HourlyPrecipIn,Conditions,Clouds,dailyrainin,SoftwareType,DateUTC
2013-02-01 00:02:00,-0.1,-5.9,30.54,WNW,295,1.2,2.3,76,0.00,CLR,SKC,0.00,WeatherDisplay:10.37,2013-02-01 06:02:00,
2013-02-01 00:07:00,-0.1,-5.9,30.54,WNW,293,0.7,2.3,76,0.00,CLR,SKC,0.00,WeatherDisplay:10.37,2013-02-01 06:07:00,
2013-02-01 00:12:00,-0.2,-6.0,30.53,WNW,284,0.2,1.1,76,0.00,CLR,SKC,0.00,WeatherDisplay:10.37,2013-02-01 06:12:00,
2013-02-01 00:17:00,-0.3,-6.1,30.54,West,273,1.0,2.3,76,0.00,CLR,SKC,0.00,WeatherDisplay:10.37,2013-02-01 06:17:00,
2013-02-01 00:22:00,-0.2,-6.0,30.54,WNW,283,0.3,1.1,76,0.00,CLR,SKC,0.00,WeatherDisplay:10.37,2013-02-01 06:22:00,
2013-02-01 00:27:00,-0.2,-6.0,30.54,West,264,2.7,3.5,76,0.00,CLR,SKC,0.00,WeatherDisplay:10.37,2013-02-01 06:27:00,
2013-02-01 00:32:00,-0.1,-5.9,30.54,WNW,287,2.3,3.5,76,0.00,CLR,SKC,0.00,WeatherDisplay:10.37,2013-02-01 06:32:00,
2013-02-01 00:37:00,0.0,-5.8,30.55,West,259,1.0,3.5,76,0.00,CLR,SKC,0.00,WeatherDisplay:10.37,2013-02-01 06:37:00,
2013-02-01 00:42:00,0.0,-5.8,30.54,West,278,0.8,1.1,76,0.00,CLR,SKC,0.00,WeatherDisplay:10.37,2013-02-01 06:42:00,
2013-02-01 00:47:00,0.0,-5.8,30.55,SW,224,0.1,1.1,76,0.00,CLR,SKC,0.00,WeatherDisplay:10.37,2013-02-01 06:47:00,
2013-02-01 00:52:00,-0.1,-5.9,30.54,SSW,200,0.9,3.5,76,0.00,CLR,SKC,0.00,WeatherDisplay:10.37,2013-02-01 06:52:00,
2013-02-01 00:57:00,-0.1,-5.9,30.54,West,278,1.2,2.3,76,0.00,CLR,SKC,0.00,WeatherDisplay:10.37,2013-02-01 06:57:00,
2013-02-01 01:02:00,-0.3,-6.1,30.54,SW,218,0.3,2.3,76,0.00,CLR,SKC,0.00,WeatherDisplay:10.37,2013-02-01 07:02:00,
2013-02-01 01:07:00,-0.4,-6.2,30.54,West,259,0.3,1.1,76,0.00,CLR,SKC,0.00,WeatherDisplay:10.37,2013-02-01 07:07:00,
2013-02-01 01:12:00,-0.3,-5.8,30.54,WSW,245,0.7,2.3,77,0.00,CLR,SKC,0.00,WeatherDisplay:10.37,2013-02-01 07:12:00,
2013-02-01 01:17:00,-0.3,-5.8,30.54,West,267,0.2,1.1,77,0.00,CLR,SKC,0.00,WeatherDisplay:10.37,2013-02-01 07:17:00,
2013-02-01 01:22:00,-0.3,-5.8,30.53,NNW,340,0.1,2.3,77,0.00,CLR,SKC,0.00,WeatherDisplay:10.37,2013-02-01 07:22:00,
2013-02-01 01:27:00,-0.4,-5.9,30.53,NNW,328,0.2,1.1,77,0.00,CLR,SKC,0.00,WeatherDisplay:10.37,2013-02-01 07:27:00,
2013-02-01 01:32:00,-0.5,-6.0,30.53,NW,320,0.3,1.1,77,0.00,CLR,SKC,0.00,WeatherDisplay:10.37,2013-02-01 07:32:00,
2013-02-01 01:37:00,-0.7,-6.2,30.52,NW,320,0.0,0.0,77,0.00,CLR,SKC,0.00,WeatherDisplay:10.37,2013-02-01 07:37:00,
2013-02-01 01:42:00,-0.7,-6.2,30.52,NW,324,0.7,1.1,77,0.00,CLR,SKC,0.00,WeatherDisplay:10.37,2013-02-01 07:42:00,
2013-02-01 01:47:00,-0.8,-6.3,30.52,NW,311,0.3,2.3,77,0.00,CLR,SKC,0.00,WeatherDisplay:10.37,2013-02-01 07:47:00,
2013-02-01 01:52:00,-0.8,-6.3,30.52,NW,323,0.1,0.0,77,0.00,CLR,SKC,0.00,WeatherDisplay:10.37,2013-02-01 07:52:00,
2013-02-01 01:57:00,-0.9,-6.4,30.52,NW,323,0.2,1.1,77,0.00,CLR,SKC,0.00,WeatherDisplay:10.37,2013-02-01 07:57:00,
2013-02-01 02:02:00,-0.8,-6.3,30.52,NNW,330,1.3,2.3,77,0.00,CLR,SKC,0.00,WeatherDisplay:10.37,2013-02-01 08:02:00,
2013-02-01 02:07:00,-0.9,-6.4,30.51,NNW,334,0.2,1.1,77,0.00,CLR,SKC,0.00,WeatherDisplay:10.37,2013-02-01 08:07:00,
2013-02-01 02:12:00,-0.9,-6.4,30.51,NNW,338,1.0,1.1,77,0.00,CLR,SKC,0.00,WeatherDisplay:10.37,2013-02-01 08:12:00,
2013-02-01 02:17:00,-0.9,-6.4,30.52,North,352,0.0,1.1,77,0.00,CLR,SKC,0.00,WeatherDisplay:10.37,2013-02-01 08:17:00,
2013-02-01 02:22:00,-1.0,-6.5,30.52,North,350,0.0,0.0,77,0.00,CLR,SKC,0.00,WeatherDisplay:10.37,2013-02-01 08:22:00,
2013-02-01 02:27:00,-1.1,-6.6,30.51,West,263,0.0,0.0,77,0.00,CLR,SKC,0.00,WeatherDisplay:10.37,2013-02-01 08:27:00,
2013-02-01 02:32:00,-1.1,-6.6,30.51,NNE,32,0.0,0.0,77,0.00,CLR,SKC,0.00,WeatherDisplay:10.37,2013-02-01 08:32:00,
2013-02-01 02:37:00,-1.2,-6.7,30.51,South,172,0.0,1.1,77,0.00,CLR,SKC,0.00,WeatherDisplay:10.37,2013-02-01 08:37:00,
2013-02-01 02:42:00,-1.5,-6.7,30.51,South,172,0.0,0.0,78,0.00,CLR,SKC,0.00,WeatherDisplay:10.37,2013-02-01 08:42:00,
2013-02-01 02:47:00,-1.6,-6.5,30.52,SSW,205,0.4,1.1,79,0.00,CLR,SKC,0.00,WeatherDisplay:10.37,2013-02-01 08:47:00,
2013-02-01 02:52:00,-1.7,-6.6,30.51,SSW,207,0.0,0.0,79,0.00,CLR,SKC,0.00,WeatherDisplay:10.37,2013-02-01 08:52:00,
2013-02-01 02:57:00,-1.8,-6.7,30.51,SSW,200,0.0,1.1,79,0.00,CLR,SKC,0.00,WeatherDisplay:10.37,2013-02-01 08:57:00,
2013-02-01 03:02:00,-1.9,-6.8,30.50,SSW,200,0.0,0.0,79,0.00,CLR,SKC,0.00,WeatherDisplay:10.37,2013-02-01 09:02:00,
2013-02-01 03:07:00,-1.9,-6.6,30.50,ENE,74,0.1,1.1,80,0.00,CLR,SKC,0.00,WeatherDisplay:10.37,2013-02-01 09:07:00,
2013-02-01 03:12:00,-1.5,-5.9,30.50,NE,46,0.6,1.1,81,0.00,CLR,SKC,0.00,WeatherDisplay:10.37,2013-02-01 09:12:00,
2013-02-01 03:17:00,-1.4,-6.1,30.49,ENE,75,0.7,1.1,80,0.00,CLR,SKC,0.00,WeatherDisplay:10.37,2013-02-01 09:17:00,
2013-02-01 03:22:00,-1.3,-6.0,30.49,NE,39,0.1,0.0,80,0.00,CLR,SKC,0.00,WeatherDisplay:10.37,2013-02-01 09:22:00,
2013-02-01 03:27:00,-1.4,-6.1,30.49,NE,39,0.0,0.0,80,0.00,CLR,SKC,0.00,WeatherDisplay:10.37,2013-02-01 09:27:00,
2013-02-01 03:32:00,-1.3,-5.7,30.49,NE,38,0.1,1.1,81,0.00,CLR,SKC,0.00,WeatherDisplay:10.37,2013-02-01 09:32:00,
2013-02-01 03:37:00,-1.4,-5.8,30.48,SSE,167,0.0,0.0,81,0.00,CLR,SKC,0.00,WeatherDisplay:10.37,2013-02-01 09:37:00,
2013-02-01 03:42:00,-1.7,-6.1,30.49,SSE,166,0.0,0.0,81,0.00,CLR,SKC,0.00,WeatherDisplay:10.37,2013-02-01 09:42:00,
2013-02-01 03:47:00,-1.8,-6.2,30.48,NNE,23,0.0,0.0,81,0.00,CLR,SKC,0.00,WeatherDisplay:10.37,2013-02-01 09:47:00,
2013-02-01 03:52:00,-1.9,-6.3,30.49,NNE,23,0.0,0.0,81,0.00,CLR,SKC,0.00,WeatherDisplay:10.37,2013-02-01 09:52:00,
2013-02-01 03:57:00,-1.9,-6.1,30.50,SW,217,0.3,1.1,82,0.00,CLR,SKC,0.00,WeatherDisplay:10.37,2013-02-01 09:57:00,
2013-02-01 04:02:00,-2.0,-6.1,30.50,SW,225,0.1,1.1,82,0.00,CLR,SKC,0.00,WeatherDisplay:10.37,2013-02-01 10:02:00,
2013-02-01 04:07:00,-2.0,-6.1,30.49,NNE,17,0.2,2.3,82,0.00,CLR,SKC,0.00,WeatherDisplay:10.37,2013-02-01 10:07:00,
2013-02-01 04:12:00,-2.0,-5.9,30.50,SW,226,0.0,1.1,83,0.00,CLR,SKC,0.00,WeatherDisplay:10.37,2013-02-01 10:12:00,
2013-02-01 04:17:00,-1.8,-5.7,30.51,SW,217,0.0,1.1,83,0.00,CLR,SKC,0.00,WeatherDisplay:10.37,2013-02-01 10:17:00,
2013-02-01 04:22:00,-1.5,-5.4,30.50,South,184,0.4,1.1,83,0.00,CLR,SKC,0.00,WeatherDisplay:10.37,2013-02-01 10:22:00,
2013-02-01 04:27:00,-1.4,-5.3,30.50,SSW,201,0.6,2.3,83,0.00,CLR,SKC,0.00,WeatherDisplay:10.37,2013-02-01 10:27:00,
2013-02-01 04:33:00,-0.9,-4.8,30.50,South,173,0.7,2.3,83,0.00,CLR,SKC,0.00,WeatherDisplay:10.37,2013-02-01 10:33:00,
2013-02-01 04:38:00,-0.6,-4.5,30.51,West,259,0.0,0.0,83,0.00,CLR,SKC,0.00,WeatherDisplay:10.37,2013-02-01 10:38:00,
2013-02-01 04:43:00,-0.3,-4.5,30.50,SE,141,0.0,0.0,82,0.00,BKN,SKC,0.00,WeatherDisplay:10.37,2013-02-01 10:43:00,
2013-02-01 04:48:00,0.0,-4.2,30.49,SE,132,0.3,1.0,82,0.00,BKN,SKC,0.00,WeatherDisplay:10.37,2013-02-01 10:48:00,
2013-02-01 04:53:00,0.2,-4.3,30.49,SSE,160,0.5,1.1,81,0.00,BKN,SKC,0.00,WeatherDisplay:10.37,2013-02-01 10:53:00,
2013-02-01 04:58:00,0.4,-4.1,30.49,SW,218,0.1,1.1,81,0.00,BKN,SKC,0.00,WeatherDisplay:10.37,2013-02-01 10:58:00,
2013-02-01 05:03:00,0.6,-4.1,30.49,South,180,0.0,0.0,80,0.00,OVC,SKC,0.00,WeatherDisplay:10.37,2013-02-01 11:03:00,
2013-02-01 05:08:00,0.8,-3.9,30.49,South,169,2.7,3.5,80,0.00,OVC,SKC,0.00,WeatherDisplay:10.37,2013-02-01 11:08:00,
2013-02-01 05:13:00,0.9,-3.8,30.50,SSW,206,1.6,2.3,80,0.00,OVC,SKC,0.00,WeatherDisplay:10.37,2013-02-01 11:13:00,
2013-02-01 05:18:00,1.0,-3.7,30.50,SSW,208,0.7,1.1,80,0.00,OVC,SKC,0.00,WeatherDisplay:10.37,2013-02-01 11:18:00,
2013-02-01 05:23:00,1.1,-3.6,30.49,SSE,166,0.7,2.3,80,0.00,OVC,SKC,0.00,WeatherDisplay:10.37,2013-02-01 11:23:00,
2013-02-01 05:28:00,1.1,-3.6,30.49,SSW,195,2.6,4.6,80,0.00,OVC,SKC,0.00,WeatherDisplay:10.37,2013-02-01 11:28:00,
2013-02-01 05:33:00,1.2,-3.8,30.50,SSE,149,0.2,1.1,79,0.00,OVC,SKC,0.00,WeatherDisplay:10.37,2013-02-01 11:33:00,
2013-02-01 05:38:00,1.2,-3.8,30.49,SSW,201,0.9,2.3,79,0.00,OVC,SKC,0.00,WeatherDisplay:10.37,2013-02-01 11:38:00,
2013-02-01 05:43:00,1.3,-3.7,30.49,East,98,0.4,1.1,79,0.00,OVC,SKC,0.00,WeatherDisplay:10.37,2013-02-01 11:43:00,
2013-02-01 05:48:00,1.4,-3.6,30.48,South,176,1.1,2.3,79,0.00,OVC,SKC,0.00,WeatherDisplay:10.37,2013-02-01 11:48:00,
2013-02-01 05:53:00,1.5,-3.5,30.48,SW,215,1.1,2.3,79,0.00,OVC,SKC,0.00,WeatherDisplay:10.37,2013-02-01 11:53:00,
2013-02-01 05:58:00,1.7,-3.6,30.49,SSW,203,0.3,1.1,78,0.00,OVC,SKC,0.00,WeatherDisplay:10.37,2013-02-01 11:58:00,
2013-02-01 06:03:00,1.8,-3.2,30.49,SW,221,0.1,1.0,79,0.00,OVC,SKC,0.00,WeatherDisplay:10.37,2013-02-01 12:03:00,
2013-02-01 06:08:00,1.8,-3.5,30.49,SE,143,0.0,1.1,78,0.00,OVC,SKC,0.00,WeatherDisplay:10.37,2013-02-01 12:08:00,
2013-02-01 06:13:00,1.9,-3.4,30.48,SSE,160,2.1,3.5,78,0.00,OVC,SKC,0.00,WeatherDisplay:10.37,2013-02-01 12:13:00,
2013-02-01 06:18:00,2.0,-3.3,30.48,SSW,205,0.0,1.1,78,0.00,OVC,SKC,0.00,WeatherDisplay:10.37,2013-02-01 12:18:00,
2013-02-01 06:23:00,2.2,-3.1,30.48,SE,141,1.4,2.3,78,0.00,OVC,SKC,0.00,WeatherDisplay:10.37,2013-02-01 12:23:00,
2013-02-01 06:28:00,2.1,-3.2,30.48,East,97,1.0,3.5,78,0.00,OVC,SKC,0.00,WeatherDisplay:10.37,2013-02-01 12:28:00,
2013-02-01 06:33:00,2.1,-3.2,30.48,SSE,159,0.4,1.1,78,0.00,OVC,SKC,0.00,WeatherDisplay:10.37,2013-02-01 12:33:00,
2013-02-01 06:38:00,2.2,-3.1,30.48,South,174,2.2,4.0,78,0.00,OVC,SKC,0.00,WeatherDisplay:10.37,2013-02-01 12:38:00,
2013-02-01 06:43:00,2.4,-2.9,30.48,SSE,166,3.7,4.6,78,0.00,OVC,SKC,0.00,WeatherDisplay:10.37,2013-02-01 12:43:00,
2013-02-01 06:48:00,2.5,-2.8,30.48,SSE,160,2.5,3.5,78,0.00,OVC,SKC,0.00,WeatherDisplay:10.37,2013-02-01 12:48:00,
2013-02-01 06:53:00,2.6,-3.0,30.47,South,191,3.6,5.8,77,0.00,OVC,SKC,0.00,WeatherDisplay:10.37,2013-02-01 12:53:00,
2013-02-01 06:58:00,2.7,-2.9,30.48,South,190,3.2,3.5,77,0.00,OVC,SKC,0.00,WeatherDisplay:10.37,2013-02-01 12:58:00,
2013-02-01 07:03:00,2.9,-2.7,30.47,South,184,2.0,3.5,77,0.00,OVC,SKC,0.00,WeatherDisplay:10.37,2013-02-01 13:03:00,
2013-02-01 07:08:00,3.0,-2.9,30.48,SSW,192,2.4,4.6,76,0.00,OVC,SKC,0.00,WeatherDisplay:10.37,2013-02-01 13:08:00,
2013-02-01 07:13:00,3.1,-2.8,30.48,SE,145,0.9,2.3,76,0.00,OVC,SKC,0.00,WeatherDisplay:10.37,2013-02-01 13:13:00,
2013-02-01 07:18:00,3.2,-2.7,30.47,SSE,164,3.2,4.0,76,0.00,OVC,SKC,0.00,WeatherDisplay:10.37,2013-02-01 13:18:00,
2013-02-01 07:23:00,3.2,-2.7,30.47,SE,146,0.9,3.0,76,0.00,OVC,SKC,0.00,WeatherDisplay:10.37,2013-02-01 13:23:00,
2013-02-01 07:28:00,3.3,-2.6,30.46,SSE,163,1.2,3.5,76,0.00,OVC,SKC,0.00,WeatherDisplay:10.37,2013-02-01 13:28:00,
2013-02-01 07:33:00,3.5,-2.4,30.46,SSE,155,1.6,3.5,76,0.00,OVC,SKC,0.00,WeatherDisplay:10.37,2013-02-01 13:33:00,
2013-02-01 07:38:00,3.6,-2.3,30.46,SSE,159,4.3,5.0,76,0.00,OVC,SKC,0.00,WeatherDisplay:10.37,2013-02-01 13:38:00,
2013-02-01 07:43:00,3.7,-2.2,30.46,SE,141,2.0,2.3,76,0.00,OVC,SKC,0.00,WeatherDisplay:10.37,2013-02-01 13:43:00,
2013-02-01 07:48:00,3.7,-2.5,30.45,SSE,159,4.4,5.8,75,0.00,OVC,SKC,0.00,WeatherDisplay:10.37,2013-02-01 13:48:00,
2013-02-01 07:53:00,3.7,-2.5,30.45,SSE,153,3.5,8.1,75,0.00,OVC,SKC,0.00,WeatherDisplay:10.37,2013-02-01 13:53:00,
2013-02-01 07:58:00,3.7,-2.5,30.45,SE,139,3.9,6.9,75,0.00,OVC,SKC,0.00,WeatherDisplay:10.37,2013-02-01 13:58:00,
2013-02-01 08:03:00,3.8,-2.1,30.46,ESE,120,3.7,5.8,76,0.00,OVC,SKC,0.00,WeatherDisplay:10.37,2013-02-01 14:03:00,
2013-02-01 08:08:00,3.9,-2.0,30.46,SSE,148,2.7,4.6,76,0.00,OVC,SKC,0.00,WeatherDisplay:10.37,2013-02-01 14:08:00,
2013-02-01 08:13:00,4.0,-1.9,30.45,SE,135,4.7,5.8,76,0.00,OVC,SKC,0.00,WeatherDisplay:10.37,2013-02-01 14:13:00,
2013-02-01 08:18:00,4.1,-1.8,30.45,SE,139,1.4,3.5,76,0.00,OVC,SKC,0.00,WeatherDisplay:10.37,2013-02-01 14:18:00,
2013-02-01 08:23:00,4.3,-1.6,30.45,South,170,2.3,3.5,76,0.00,OVC,SKC,0.00,WeatherDisplay:10.37,2013-02-01 14:23:00,
2013-02-01 08:28:00,4.6,-1.6,30.45,SSE,155,3.6,5.8,75,0.00,OVC,SKC,0.00,WeatherDisplay:10.37,2013-02-01 14:28:00,
2013-02-01 08:33:00,5.3,-1.2,30.45,SE,131,4.2,5.8,74,0.00,OVC,SKC,0.00,WeatherDisplay:10.37,2013-02-01 14:33:00,
2013-02-01 08:38:00,6.0,-0.8,30.45,SSW,200,0.9,2.3,73,0.00,OVC,SKC,0.00,WeatherDisplay:10.37,2013-02-01 14:38:00,
2013-02-01 08:43:00,6.4,-0.7,30.44,SSE,158,4.9,6.0,72,0.00,OVC,SKC,0.00,WeatherDisplay:10.37,2013-02-01 14:43:00,
2013-02-01 08:48:00,6.2,-1.2,30.44,ESE,114,2.1,3.5,71,0.00,OVC,SKC,0.00,WeatherDisplay:10.37,2013-02-01 14:48:00,
2013-02-01 08:53:00,6.3,-1.1,30.44,SSE,168,6.2,8.1,71,0.00,OVC,SKC,0.00,WeatherDisplay:10.37,2013-02-01 14:53:00,
2013-02-01 08:58:00,6.1,-1.6,30.44,SE,134,3.9,6.0,70,0.00,OVC,SKC,0.00,WeatherDisplay:10.37,2013-02-01 14:58:00,
2013-02-01 09:03:00,6.4,-1.0,30.43,SSE,158,3.5,5.8,71,0.00,OVC,SKC,0.00,WeatherDisplay:10.37,2013-02-01 15:03:00,
2013-02-01 09:08:00,7.0,-0.4,30.43,East,94,5.1,6.0,71,0.00,OVC,SKC,0.00,WeatherDisplay:10.37,2013-02-01 15:08:00,
2013-02-01 09:13:00,7.0,-0.7,30.43,SE,138,3.5,6.9,70,0.00,OVC,SKC,0.00,WeatherDisplay:10.37,2013-02-01 15:13:00,
2013-02-01 09:18:00,7.5,-0.6,30.43,SE,141,6.7,11.5,69,0.00,OVC,SKC,0.00,WeatherDisplay:10.37,2013-02-01 15:18:00,
2013-02-01 09:23:00,7.5,-0.6,30.43,SSE,166,4.6,8.1,69,0.00,OVC,SKC,0.00,WeatherDisplay:10.37,2013-02-01 15:23:00,
2013-02-01 09:28:00,8.1,0.0,30.42,SSE,168,7.8,10.4,69,0.00,OVC,SKC,0.00,WeatherDisplay:10.37,2013-02-01 15:28:00,
2013-02-01 09:33:00,8.2,-0.5,30.42,South,180,6.5,12.7,67,0.00,OVC,SKC,0.00,WeatherDisplay:10.37,2013-02-01 15:33:00,
2013-02-01 09:38:00,8.4,-0.3,30.42,SE,131,6.4,13.0,67,0.00,OVC,SKC,0.00,WeatherDisplay:10.37,2013-02-01 15:38:00,
2013-02-01 09:43:00,8.1,-0.6,30.42,SSE,160,9.5,11.5,67,0.00,OVC,SKC,0.00,WeatherDisplay:10.37,2013-02-01 15:43:00,
2013-02-01 09:48:00,8.2,-0.2,30.41,SE,143,8.4,8.4,68,0.00,OVC,SKC,0.00,WeatherDisplay:10.37,2013-02-01 15:48:00,
2013-02-01 09:53:00,8.7,0.3,30.41,SSE,147,4.9,11.5,68,0.00,OVC,SKC,0.00,WeatherDisplay:10.37,2013-02-01 15:53:00,
2013-02-01 09:58:00,9.0,0.6,30.41,SSW,198,6.8,9.0,68,0.00,OVC,SKC,0.00,WeatherDisplay:10.37,2013-02-01 15:58:00,
2013-02-01 10:03:00,8.9,0.2,30.41,South,184,8.4,15.0,67,0.00,SCT,SKC,0.00,WeatherDisplay:10.37,2013-02-01 16:03:00,
2013-02-01 10:08:00,9.0,0.3,30.41,ESE,114,7.3,11.5,67,0.00,SCT,SKC,0.00,WeatherDisplay:10.37,2013-02-01 16:08:00,
2013-02-01 10:14:00,9.2,0.1,30.41,SW,218,7.6,11.5,66,0.00,SCT,SKC,0.00,WeatherDisplay:10.37,2013-02-01 16:14:00,
2013-02-01 10:19:00,8.8,-0.3,30.40,SE,146,9.9,17.0,66,0.00,SCT,SKC,0.00,WeatherDisplay:10.37,2013-02-01 16:19:00,
2013-02-01 10:24:00,8.8,0.1,30.41,SSW,212,5.4,8.1,67,0.00,CLR,SKC,0.00,WeatherDisplay:10.37,2013-02-01 16:24:00,
2013-02-01 10:29:00,9.1,0.4,30.40,SSE,163,9.5,11.5,67,0.00,CLR,SKC,0.00,WeatherDisplay:10.37,2013-02-01 16:29:00,
2013-02-01 10:34:00,9.3,0.5,30.40,South,176,6.1,10.4,67,0.00,CLR,SKC,0.00,WeatherDisplay:10.37,2013-02-01 16:34:00,
2013-02-01 10:39:00,9.4,0.6,30.40,SE,125,11.2,18.4,67,0.00,CLR,SKC,0.00,WeatherDisplay:10.37,2013-02-01 16:39:00,
2013-02-01 10:44:00,9.9,1.4,30.39,SSW,195,7.2,11.5,68,0.00,SCT,SKC,0.00,WeatherDisplay:10.37,2013-02-01 16:44:00,
2013-02-01 10:49:00,9.9,1.1,30.38,SSE,163,6.5,11.5,67,0.00,SCT,SKC,0.00,WeatherDisplay:10.37,2013-02-01 16:49:00,
2013-02-01 10:54:00,10.2,1.4,30.38,South,191,7.8,11.0,67,0.00,SCT,SKC,0.00,WeatherDisplay:10.37,2013-02-01 16:54:00,
2013-02-01 10:59:00,10.6,1.8,30.38,SSE,152,11.7,16.1,67,0.00,SCT,SKC,0.00,WeatherDisplay:10.37,2013-02-01 16:59:00,
2013-02-01 11:04:00,10.6,1.8,30.38,SSW,208,4.5,6.9,67,0.00,CLR,SKC,0.00,WeatherDisplay:10.37,2013-02-01 17:04:00,
2013-02-01 11:09:00,11.1,2.3,30.38,SSW,195,4.2,9.2,67,0.00,CLR,SKC,0.00,WeatherDisplay:10.37,2013-02-01 17:09:00,
2013-02-01 11:14:00,11.4,2.6,30.38,SSW,197,6.9,8.1,67,0.00,CLR,SKC,0.00,WeatherDisplay:10.37,2013-02-01 17:14:00,
2013-02-01 11:19:00,11.2,2.4,30.38,ESE,115,6.4,11.5,67,0.00,CLR,SKC,0.00,WeatherDisplay:10.37,2013-02-01 17:19:00,
2013-02-01 11:24:00,10.8,2.0,30.37,ESE,117,10.3,13.8,67,0.00,CLR,SKC,0.00,WeatherDisplay:10.37,2013-02-01 17:24:00,
2013-02-01 11:29:00,10.6,2.1,30.37,SSE,150,8.2,10.4,68,0.00,CLR,SKC,0.00,WeatherDisplay:10.37,2013-02-01 17:29:00,
2013-02-01 11:34:00,10.9,2.4,30.37,SE,136,6.7,10.4,68,0.00,CLR,SKC,0.00,WeatherDisplay:10.37,2013-02-01 17:34:00,
2013-02-01 11:39:00,10.9,2.4,30.36,SE,131,8.8,12.0,68,0.00,CLR,SKC,0.00,WeatherDisplay:10.37,2013-02-01 17:39:00,
2013-02-01 11:44:00,11.0,2.5,30.35,SSE,149,9.2,12.7,68,0.00,BKN,SKC,0.00,WeatherDisplay:10.37,2013-02-01 17:44:00,
2013-02-01 11:49:00,11.1,2.9,30.35,SE,139,5.8,11.5,69,0.00,BKN,SKC,0.00,WeatherDisplay:10.37,2013-02-01 17:49:00,
2013-02-01 11:54:00,11.5,3.6,30.35,SE,131,3.5,5.8,70,0.00,BKN,SKC,0.00,WeatherDisplay:10.37,2013-02-01 17:54:00,
2013-02-01 11:59:00,11.8,3.3,30.35,South,176,6.9,10.4,68,0.00,BKN,SKC,0.00,WeatherDisplay:10.37,2013-02-01 17:59:00,
2013-02-01 12:04:00,11.7,3.5,30.35,ESE,121,6.9,10.4,69,0.00,SCT,SKC,0.00,WeatherDisplay:10.37,2013-02-01 18:04:00,
2013-02-01 12:09:00,11.7,3.5,30.34,SE,124,7.5,11.5,69,0.00,SCT,SKC,0.00,WeatherDisplay:10.37,2013-02-01 18:09:00,
2013-02-01 12:14:00,12.1,4.2,30.34,SE,125,7.0,11.5,70,0.00,SCT,SKC,0.00,WeatherDisplay:10.37,2013-02-01 18:14:00,
2013-02-01 12:19:00,12.5,4.6,30.33,SSE,149,5.1,5.8,70,0.00,SCT,SKC,0.00,WeatherDisplay:10.37,2013-02-01 18:19:00,
2013-02-01 12:24:00,12.9,4.6,30.33,SSE,153,7.2,11.5,69,0.00,CLR,SKC,0.00,WeatherDisplay:10.37,2013-02-01 18:24:00,
2013-02-01 12:29:00,13.5,5.8,30.32,ESE,120,6.5,11.0,71,0.00,CLR,SKC,0.00,WeatherDisplay:10.37,2013-02-01 18:29:00,
2013-02-01 12:34:00,14.0,6.0,30.31,SE,125,8.7,12.7,70,0.00,CLR,SKC,0.00,WeatherDisplay:10.37,2013-02-01 18:34:00,
2013-02-01 12:39:00,14.2,6.2,30.31,SSE,159,6.1,8.1,70,0.00,CLR,SKC,0.00,WeatherDisplay:10.37,2013-02-01 18:39:00,
2013-02-01 12:44:00,14.9,6.9,30.30,SSE,155,9.8,13.8,70,0.00,SCT,SKC,0.00,WeatherDisplay:10.37,2013-02-01 18:44:00,
2013-02-01 12:49:00,15.4,7.4,30.30,ESE,108,8.1,10.4,70,0.00,SCT,SKC,0.00,WeatherDisplay:10.37,2013-02-01 18:49:00,
2013-02-01 12:54:00,15.9,7.8,30.29,SSE,162,10.2,13.0,70,0.00,SCT,SKC,0.00,WeatherDisplay:10.37,2013-02-01 18:54:00,
2013-02-01 12:59:00,16.2,8.1,30.28,SSW,210,7.0,12.7,70,0.00,SCT,SKC,0.00,WeatherDisplay:10.37,2013-02-01 18:59:00,
2013-02-01 13:04:00,16.6,8.2,30.28,SSW,194,10.8,17.3,69,0.00,BKN,SKC,0.00,WeatherDisplay:10.37,2013-02-01 19:04:00,
2013-02-01 13:09:00,17.0,8.9,30.27,SSE,149,9.0,15.0,70,0.00,BKN,SKC,0.00,WeatherDisplay:10.37,2013-02-01 19:09:00,
2013-02-01 13:14:00,17.6,9.5,30.27,SSW,193,6.9,23.0,70,0.00,BKN,SKC,0.00,WeatherDisplay:10.37,2013-02-01 19:14:00,
2013-02-01 13:19:00,18.3,10.5,30.26,SSW,200,4.8,6.9,71,0.00,BKN,SKC,0.00,WeatherDisplay:10.37,2013-02-01 19:19:00,
2013-02-01 13:24:00,18.8,10.3,30.26,SSE,155,10.5,15.0,69,0.00,SCT,SKC,0.00,WeatherDisplay:10.37,2013-02-01 19:24:00,
2013-02-01 13:29:00,18.8,10.6,30.25,SSW,194,9.4,12.7,70,0.00,SCT,SKC,0.00,WeatherDisplay:10.37,2013-02-01 19:29:00,
2013-02-01 13:34:00,19.3,11.1,30.25,SSE,148,7.0,10.4,70,0.00,SCT,SKC,0.00,WeatherDisplay:10.37,2013-02-01 19:34:00,
2013-02-01 13:39:00,19.2,11.0,30.25,SSE,160,11.9,16.0,70,0.00,SCT,SKC,0.00,WeatherDisplay:10.37,2013-02-01 19:39:00,
2013-02-01 13:44:00,19.0,11.1,30.24,ESE,115,12.4,17.3,71,0.00,SCT,SKC,0.00,WeatherDisplay:10.37,2013-02-01 19:44:00,
2013-02-01 13:49:00,19.3,11.7,30.24,South,172,9.4,13.8,72,0.00,SCT,SKC,0.00,WeatherDisplay:10.37,2013-02-01 19:49:00,
2013-02-01 13:54:00,19.9,12.6,30.24,South,172,4.8,6.0,73,0.00,SCT,SKC,0.00,WeatherDisplay:10.37,2013-02-01 19:54:00,
2013-02-01 13:59:00,20.7,13.1,30.24,South,174,5.7,12.7,72,0.00,SCT,SKC,0.00,WeatherDisplay:10.37,2013-02-01 19:59:00,
2013-02-01 14:04:00,21.6,14.0,30.24,SSE,152,6.6,10.0,72,0.00,SCT,SKC,0.00,WeatherDisplay:10.37,2013-02-01 20:04:00,
2013-02-01 14:09:00,22.2,14.5,30.24,SSE,162,7.1,15.0,72,0.00,SCT,SKC,0.00,WeatherDisplay:10.37,2013-02-01 20:09:00,
2013-02-01 14:14:00,22.7,15.0,30.23,SSW,201,7.5,11.5,72,0.00,SCT,SKC,0.00,WeatherDisplay:10.37,2013-02-01 20:14:00,
2013-02-01 14:19:00,23.2,15.8,30.23,SSW,203,7.5,11.5,73,0.00,SCT,SKC,0.00,WeatherDisplay:10.37,2013-02-01 20:19:00,
2013-02-01 14:24:00,23.8,16.4,30.23,South,190,5.7,10.4,73,0.00,SCT,SKC,0.00,WeatherDisplay:10.37,2013-02-01 20:24:00,
2013-02-01 14:29:00,24.4,17.0,30.23,SE,140,6.3,9.2,73,0.00,SCT,SKC,0.00,WeatherDisplay:10.37,2013-02-01 20:29:00,
2013-02-01 14:34:00,25.1,17.3,30.22,SW,214,7.5,16.1,72,0.00,SCT,SKC,0.00,WeatherDisplay:10.37,2013-02-01 20:34:00,
2013-02-01 14:39:00,25.4,17.3,30.22,SW,222,12.9,15.0,71,0.00,SCT,SKC,0.00,WeatherDisplay:10.37,2013-02-01 20:39:00,
2013-02-01 14:44:00,25.7,17.6,30.22,SSW,208,5.4,10.4,71,0.00,SCT,SKC,0.00,WeatherDisplay:10.37,2013-02-01 20:44:00,
2013-02-01 14:49:00,26.0,17.6,30.22,SSW,197,9.5,10.0,70,0.00,SCT,SKC,0.00,WeatherDisplay:10.37,2013-02-01 20:49:00,
2013-02-01 14:54:00,26.0,17.6,30.21,SSE,162,10.1,15.0,70,0.00,SCT,SKC,0.00,WeatherDisplay:10.37,2013-02-01 20:54:00,
2013-02-01 14:59:00,26.0,17.6,30.21,South,175,13.3,15.0,70,0.00,SCT,SKC,0.00,WeatherDisplay:10.37,2013-02-01 20:59:00,
2013-02-01 15:04:00,26.0,17.6,30.21,SSW,212,10.1,19.6,70,0.00,CLR,SKC,0.00,WeatherDisplay:10.37,2013-02-01 21:04:00,
2013-02-01 15:09:00,26.0,17.6,30.20,South,169,11.6,18.4,70,0.00,CLR,SKC,0.00,WeatherDisplay:10.37,2013-02-01 21:09:00,
2013-02-01 15:14:00,26.0,17.9,30.20,SSW,205,9.4,13.0,71,0.00,CLR,SKC,0.00,WeatherDisplay:10.37,2013-02-01 21:14:00,
2013-02-01 15:19:00,26.1,18.0,30.20,South,169,8.0,12.7,71,0.00,CLR,SKC,0.00,WeatherDisplay:10.37,2013-02-01 21:19:00,
2013-02-01 15:24:00,26.2,18.4,30.20,SSE,152,5.5,8.1,72,0.00,SCT,SKC,0.00,WeatherDisplay:10.37,2013-02-01 21:24:00,
2013-02-01 15:29:00,26.3,18.2,30.20,ESE,120,10.8,18.4,71,0.00,SCT,SKC,0.00,WeatherDisplay:10.37,2013-02-01 21:29:00,
2013-02-01 15:34:00,26.5,18.4,30.20,SSW,194,8.1,12.7,71,0.00,SCT,SKC,0.00,WeatherDisplay:10.37,2013-02-01 21:34:00,
2013-02-01 15:39:00,26.8,18.3,30.20,SW,218,4.0,7.0,70,0.00,SCT,SKC,0.00,WeatherDisplay:10.37,2013-02-01 21:39:00,
2013-02-01 15:45:00,27.1,18.9,30.20,SSW,203,6.6,10.0,71,0.00,BKN,SKC,0.00,WeatherDisplay:10.37,2013-02-01 21:45:00,
2013-02-01 15:50:00,27.2,18.7,30.20,SSW,208,10.4,12.7,70,0.00,BKN,SKC,0.00,WeatherDisplay:10.37,2013-02-01 21:50:00,
2013-02-01 15:55:00,27.0,18.2,30.20,ESE,117,6.6,9.2,69,0.00,BKN,SKC,0.00,WeatherDisplay:10.37,2013-02-01 21:55:00,
2013-02-01 16:00:00,26.9,18.1,30.20,SSW,196,9.6,12.7,69,0.00,BKN,SKC,0.00,WeatherDisplay:10.37,2013-02-01 22:00:00,
2013-02-01 16:05:00,26.9,18.1,30.19,SSE,158,9.7,13.8,69,0.00,SCT,SKC,0.00,WeatherDisplay:10.37,2013-02-01 22:05:00,
2013-02-01 16:10:00,26.9,18.4,30.19,SSW,210,9.2,17.3,70,0.00,SCT,SKC,0.00,WeatherDisplay:10.37,2013-02-01 22:10:00,
2013-02-01 16:15:00,27.0,18.5,30.18,SSW,210,9.8,13.8,70,0.00,SCT,SKC,0.00,WeatherDisplay:10.37,2013-02-01 22:15:00,
2013-02-01 16:20:00,26.9,18.4,30.18,SW,217,6.8,11.5,70,0.00,SCT,SKC,0.00,WeatherDisplay:10.37,2013-02-01 22:20:00,
2013-02-01 16:25:00,26.9,18.1,30.18,SSW,204,5.7,13.8,69,0.00,SCT,SKC,0.00,WeatherDisplay:10.37,2013-02-01 22:25:00,
2013-02-01 16:30:00,26.8,18.0,30.17,South,176,7.2,19.6,69,0.00,SCT,SKC,0.00,WeatherDisplay:10.37,2013-02-01 22:30:00,
2013-02-01 16:35:00,26.7,17.9,30.17,South,173,9.3,13.8,69,0.00,SCT,SKC,0.00,WeatherDisplay:10.37,2013-02-01 22:35:00,
2013-02-01 16:40:00,26.7,18.2,30.17,SSE,163,7.4,11.5,70,0.00,SCT,SKC,0.00,WeatherDisplay:10.37,2013-02-01 22:40:00,
2013-02-01 16:45:00,26.7,18.2,30.16,SSW,204,10.4,13.8,70,0.00,SCT,SKC,0.00,WeatherDisplay:10.37,2013-02-01 22:45:00,
2013-02-01 16:50:00,26.7,18.2,30.16,South,181,12.0,16.1,70,0.00,SCT,SKC,0.00,WeatherDisplay:10.37,2013-02-01 22:50:00,
2013-02-01 16:55:00,26.7,18.2,30.16,SSE,165,7.4,10.4,70,0.00,SCT,SKC,0.00,WeatherDisplay:10.37,2013-02-01 22:55:00,
2013-02-01 17:00:00,26.7,18.2,30.16,SSW,203,10.9,16.1,70,0.00,SCT,SKC,0.00,WeatherDisplay:10.37,2013-02-01 23:00:00,
2013-02-01 17:05:00,26.7,17.9,30.17,SSW,211,10.4,18.4,69,0.00,CLR,SKC,0.00,WeatherDisplay:10.37,2013-02-01 23:05:00,
2013-02-01 17:10:00,26.6,18.1,30.17,SSW,197,7.5,10.4,70,0.00,CLR,SKC,0.00,WeatherDisplay:10.37,2013-02-01 23:10:00,
2013-02-01 17:15:00,26.6,18.1,30.16,SSW,194,8.8,16.1,70,0.00,CLR,SKC,0.00,WeatherDisplay:10.37,2013-02-01 23:15:00,
2013-02-01 17:20:00,26.4,17.9,30.16,South,180,7.2,13.8,70,0.00,CLR,SKC,0.00,WeatherDisplay:10.37,2013-02-01 23:20:00,
2013-02-01 17:25:00,26.3,18.2,30.16,SSW,194,11.4,16.1,71,0.00,CLR,SKC,0.00,WeatherDisplay:10.37,2013-02-01 23:25:00,
2013-02-01 17:30:00,26.2,18.1,30.16,South,169,10.6,18.4,71,0.00,CLR,SKC,0.00,WeatherDisplay:10.37,2013-02-01 23:30:00,
2013-02-01 17:35:00,26.2,18.1,30.17,SSW,212,7.3,11.5,71,0.00,CLR,SKC,0.00,WeatherDisplay:10.37,2013-02-01 23:35:00,
2013-02-01 17:40:00,26.2,18.4,30.17,South,169,6.9,9.2,72,0.00,CLR,SKC,0.00,WeatherDisplay:10.37,2013-02-01 23:40:00,
2013-02-01 17:45:00,26.2,18.4,30.17,South,190,7.4,11.5,72,0.00,SCT,SKC,0.00,WeatherDisplay:10.37,2013-02-01 23:45:00,
2013-02-01 17:50:00,26.2,18.4,30.17,SSE,167,8.8,11.5,72,0.00,SCT,SKC,0.00,WeatherDisplay:10.37,2013-02-01 23:50:00,
2013-02-01 17:55:00,26.3,18.5,30.17,SSW,207,6.2,8.1,72,0.00,SCT,SKC,0.00,WeatherDisplay:10.37,2013-02-01 23:55:00,
2013-02-01 18:00:00,26.3,18.5,30.17,South,190,6.1,9.2,72,0.00,SCT,SKC,0.00,WeatherDisplay:10.37,2013-02-02 00:00:00,
2013-02-01 18:05:00,26.3,18.5,30.17,SSW,197,8.0,12.7,72,0.00,BKN,SKC,0.00,WeatherDisplay:10.37,2013-02-02 00:05:00,
2013-02-01 18:10:00,26.3,18.5,30.18,SW,215,5.8,8.1,72,0.00,BKN,SKC,0.00,WeatherDisplay:10.37,2013-02-02 00:10:00,
2013-02-01 18:15:00,26.3,18.8,30.18,SSW,208,4.8,10.0,73,0.00,BKN,SKC,0.00,WeatherDisplay:10.37,2013-02-02 00:15:00,
2013-02-01 18:20:00,26.2,18.7,30.18,SSW,194,5.7,10.4,73,0.00,BKN,SKC,0.00,WeatherDisplay:10.37,2013-02-02 00:20:00,
2013-02-01 18:25:00,26.2,18.4,30.18,South,181,5.9,9.2,72,0.00,OVC,SKC,0.00,WeatherDisplay:10.37,2013-02-02 00:25:00,
2013-02-01 18:30:00,26.2,18.4,30.17,South,185,8.4,16.1,72,0.00,OVC,SKC,0.00,WeatherDisplay:10.37,2013-02-02 00:30:00,
2013-02-01 18:35:00,26.1,18.6,30.17,South,169,7.5,11.5,73,0.00,OVC,SKC,0.00,WeatherDisplay:10.37,2013-02-02 00:35:00,
2013-02-01 18:40:00,26.1,18.6,30.17,South,180,9.1,11.5,73,0.00,OVC,SKC,0.00,WeatherDisplay:10.37,2013-02-02 00:40:00,
2013-02-01 18:45:00,25.9,18.4,30.17,South,187,5.7,11.5,73,0.00,OVC,SKC,0.00,WeatherDisplay:10.37,2013-02-02 00:45:00,
2013-02-01 18:50:00,25.9,18.4,30.17,South,174,8.5,11.5,73,0.00,OVC,SKC,0.00,WeatherDisplay:10.37,2013-02-02 00:50:00,
2013-02-01 18:55:00,25.8,18.3,30.17,SSE,162,6.8,11.0,73,0.00,OVC,SKC,0.00,WeatherDisplay:10.37,2013-02-02 00:55:00,
2013-02-01 19:00:00,25.7,18.2,30.17,SSW,200,7.0,8.1,73,0.00,OVC,SKC,0.00,WeatherDisplay:10.37,2013-02-02 01:00:00,
2013-02-01 19:05:00,25.5,18.0,30.17,SSE,166,5.8,11.5,73,0.00,BKN,SKC,0.00,WeatherDisplay:10.37,2013-02-02 01:05:00,
2013-02-01 19:10:00,25.5,18.4,30.17,SSW,210,3.5,10.4,74,0.00,BKN,SKC,0.00,WeatherDisplay:10.37,2013-02-02 01:10:00,
2013-02-01 19:15:00,25.4,18.3,30.17,South,169,7.9,10.4,74,0.00,BKN,SKC,0.00,WeatherDisplay:10.37,2013-02-02 01:15:00,
2013-02-01 19:20:00,25.4,18.3,30.17,SE,131,6.6,10.0,74,0.00,BKN,SKC,0.00,WeatherDisplay:10.37,2013-02-02 01:20:00,
2013-02-01 19:25:00,25.4,18.3,30.17,SSE,162,5.8,8.1,74,0.00,SCT,SKC,0.00,WeatherDisplay:10.37,2013-02-02 01:25:00,
2013-02-01 19:30:00,25.3,18.2,30.17,South,186,5.0,10.4,74,0.00,SCT,SKC,0.00,WeatherDisplay:10.37,2013-02-02 01:30:00,
2013-02-01 19:35:00,25.4,18.3,30.17,South,188,7.6,9.2,74,0.00,SCT,SKC,0.00,WeatherDisplay:10.37,2013-02-02 01:35:00,
2013-02-01 19:40:00,25.4,18.3,30.17,SSE,163,7.8,12.7,74,0.00,SCT,SKC,0.00,WeatherDisplay:10.37,2013-02-02 01:40:00,
2013-02-01 19:45:00,25.4,18.3,30.16,South,169,8.0,12.0,74,0.00,BKN,SKC,0.00,WeatherDisplay:10.37,2013-02-02 01:45:00,
2013-02-01 19:50:00,25.5,18.4,30.16,SSE,161,6.2,11.5,74,0.00,BKN,SKC,0.00,WeatherDisplay:10.37,2013-02-02 01:50:00,
2013-02-01 19:55:00,25.5,18.4,30.16,SSE,167,7.0,11.5,74,0.00,BKN,SKC,0.00,WeatherDisplay:10.37,2013-02-02 01:55:00,
2013-02-01 20:00:00,25.5,18.4,30.16,South,174,7.0,11.5,74,0.00,BKN,SKC,0.00,WeatherDisplay:10.37,2013-02-02 02:00:00,
2013-02-01 20:05:00,25.5,18.4,30.16,SSE,160,7.8,11.5,74,0.00,OVC,SKC,0.00,WeatherDisplay:10.37,2013-02-02 02:05:00,
2013-02-01 20:10:00,25.5,18.4,30.16,SSE,156,8.6,10.0,74,0.00,OVC,SKC,0.00,WeatherDisplay:10.37,2013-02-02 02:10:00,
2013-02-01 20:15:00,25.5,18.4,30.16,South,181,4.6,11.5,74,0.00,OVC,SKC,0.00,WeatherDisplay:10.37,2013-02-02 02:15:00,
2013-02-01 20:20:00,25.6,18.5,30.16,SSW,198,5.2,11.5,74,0.00,OVC,SKC,0.00,WeatherDisplay:10.37,2013-02-02 02:20:00,
2013-02-01 20:25:00,25.6,18.5,30.16,South,170,5.7,11.5,74,0.00,OVC,SKC,0.00,WeatherDisplay:10.37,2013-02-02 02:25:00,
2013-02-01 20:30:00,25.6,18.5,30.16,SSW,201,4.5,9.2,74,0.00,OVC,SKC,0.00,WeatherDisplay:10.37,2013-02-02 02:30:00,
2013-02-01 20:35:00,25.7,18.6,30.16,SW,221,5.4,9.2,74,0.00,OVC,SKC,0.00,WeatherDisplay:10.37,2013-02-02 02:35:00,
2013-02-01 20:40:00,25.7,18.6,30.16,South,179,6.7,11.5,74,0.00,OVC,SKC,0.00,WeatherDisplay:10.37,2013-02-02 02:40:00,
2013-02-01 20:45:00,25.7,18.6,30.16,SW,215,4.9,12.7,74,0.00,OVC,SKC,0.00,WeatherDisplay:10.37,2013-02-02 02:45:00,
2013-02-01 20:50:00,25.7,18.6,30.16,SW,225,6.1,9.0,74,0.00,OVC,SKC,0.00,WeatherDisplay:10.37,2013-02-02 02:50:00,
2013-02-01 20:55:00,25.8,18.7,30.16,SE,143,5.0,9.0,74,0.00,OVC,SKC,0.00,WeatherDisplay:10.37,2013-02-02 02:55:00,
2013-02-01 21:00:00,25.7,18.6,30.16,SSE,167,4.8,8.0,74,0.00,OVC,SKC,0.00,WeatherDisplay:10.37,2013-02-02 03:00:00,
2013-02-01 21:05:00,25.7,18.9,30.16,South,178,4.1,5.8,75,0.00,BKN,SKC,0.00,WeatherDisplay:10.37,2013-02-02 03:05:00,
2013-02-01 21:10:00,25.7,18.6,30.16,SSW,198,6.1,8.1,74,0.00,BKN,SKC,0.00,WeatherDisplay:10.37,2013-02-02 03:10:00,
2013-02-01 21:15:00,25.7,18.6,30.16,SSE,158,7.1,9.2,74,0.00,BKN,SKC,0.00,WeatherDisplay:10.37,2013-02-02 03:15:00,
2013-02-01 21:20:00,25.7,18.6,30.16,SSW,199,4.8,6.9,74,0.00,BKN,SKC,0.00,WeatherDisplay:10.37,2013-02-02 03:20:00,
2013-02-01 21:25:00,25.7,18.9,30.16,SSW,200,4.2,6.9,75,0.00,BKN,SKC,0.00,WeatherDisplay:10.37,2013-02-02 03:25:00,
2013-02-01 21:30:00,25.7,18.9,30.16,SSE,158,2.5,5.8,75,0.00,BKN,SKC,0.00,WeatherDisplay:10.37,2013-02-02 03:30:00,
2013-02-01 21:35:00,25.7,18.6,30.16,SSE,153,3.1,6.0,74,0.00,BKN,SKC,0.00,WeatherDisplay:10.37,2013-02-02 03:35:00,
2013-02-01 21:40:00,25.6,18.8,30.16,SW,217,4.5,6.9,75,0.00,BKN,SKC,0.00,WeatherDisplay:10.37,2013-02-02 03:40:00,
2013-02-01 21:45:00,25.6,18.8,30.16,SSW,208,4.5,6.9,75,0.00,BKN,SKC,0.00,WeatherDisplay:10.37,2013-02-02 03:45:00,
2013-02-01 21:50:00,25.6,18.8,30.17,SSW,201,4.7,6.9,75,0.00,BKN,SKC,0.00,WeatherDisplay:10.37,2013-02-02 03:50:00,
2013-02-01 21:56:00,25.6,18.8,30.16,SSW,193,2.6,7.0,75,0.00,BKN,SKC,0.00,WeatherDisplay:10.37,2013-02-02 03:56:00,
2013-02-01 22:01:00,25.6,18.8,30.17,SSE,162,2.4,3.5,75,0.00,BKN,SKC,0.00,WeatherDisplay:10.37,2013-02-02 04:01:00,
2013-02-01 22:06:00,25.7,18.6,30.17,SW,233,2.4,4.6,74,0.00,BKN,SKC,0.00,WeatherDisplay:10.37,2013-02-02 04:06:00,
2013-02-01 22:11:00,25.8,19.0,30.17,SW,214,2.5,5.0,75,0.00,BKN,SKC,0.00,WeatherDisplay:10.37,2013-02-02 04:11:00,
2013-02-01 22:16:00,25.8,18.7,30.18,SSW,208,4.2,5.8,74,0.00,BKN,SKC,0.00,WeatherDisplay:10.37,2013-02-02 04:16:00,
2013-02-01 22:21:00,25.9,18.7,30.17,SW,224,1.2,5.0,74,0.00,BKN,SKC,0.00,WeatherDisplay:10.37,2013-02-02 04:21:00,
2013-02-01 22:26:00,25.9,18.7,30.17,SW,221,4.1,4.6,74,0.00,OVC,SKC,0.00,WeatherDisplay:10.37,2013-02-02 04:26:00,
2013-02-01 22:31:00,25.9,19.1,30.17,SW,231,2.2,4.6,75,0.00,OVC,SKC,0.00,WeatherDisplay:10.37,2013-02-02 04:31:00,
2013-02-01 22:36:00,25.9,19.1,30.17,SW,222,2.5,4.6,75,0.00,OVC,SKC,0.00,WeatherDisplay:10.37,2013-02-02 04:36:00,
2013-02-01 22:41:00,26.0,19.2,30.17,SW,214,3.3,4.6,75,0.00,OVC,SKC,0.00,WeatherDisplay:10.37,2013-02-02 04:41:00,
2013-02-01 22:46:00,26.0,19.2,30.16,South,179,1.3,2.3,75,0.00,OVC,SKC,0.00,WeatherDisplay:10.37,2013-02-02 04:46:00,
2013-02-01 22:51:00,26.0,19.2,30.17,SSW,205,1.8,4.0,75,0.00,OVC,SKC,0.00,WeatherDisplay:10.37,2013-02-02 04:51:00,
2013-02-01 22:56:00,26.1,19.3,30.17,SW,214,1.6,2.3,75,0.00,OVC,SKC,0.00,WeatherDisplay:10.37,2013-02-02 04:56:00,
2013-02-01 23:00:00,26.2,19.4,30.16,SSW,206,3.0,6.0,75,0.00,OVC,SKC,0.00,WeatherDisplay:10.37,2013-02-02 05:00:00,
2013-02-01 23:01:00,26.2,19.4,30.16,SSW,203,3.5,5.0,75,0.00,OVC,SKC,0.00,WeatherDisplay:10.37,2013-02-02 05:01:00,
2013-02-01 23:06:00,26.3,19.5,30.16,SW,231,1.6,4.6,75,0.00,OVC,SKC,0.00,WeatherDisplay:10.37,2013-02-02 05:06:00,
2013-02-01 23:11:00,26.3,19.5,30.17,SW,232,1.4,3.5,75,0.00,OVC,SKC,0.00,WeatherDisplay:10.37,2013-02-02 05:11:00,
2013-02-01 23:16:00,26.3,19.5,30.16,SW,215,2.7,4.6,75,0.00,OVC,SKC,0.00,WeatherDisplay:10.37,2013-02-02 05:16:00,
2013-02-01 23:22:00,26.4,19.5,30.17,SSW,212,1.9,5.0,75,0.00,OVC,SKC,0.00,WeatherDisplay:10.37,2013-02-02 05:22:00,
2013-02-01 23:27:00,26.5,19.6,30.17,SW,234,1.7,3.5,75,0.00,OVC,SKC,0.00,WeatherDisplay:10.37,2013-02-02 05:27:00,
2013-02-01 23:32:00,26.6,20.1,30.16,SW,234,2.2,3.5,76,0.00,OVC,SKC,0.00,WeatherDisplay:10.37,2013-02-02 05:32:00,
2013-02-01 23:37:00,26.7,20.1,30.16,WSW,242,3.7,4.6,76,0.00,OVC,SKC,0.00,WeatherDisplay:10.37,2013-02-02 05:37:00,
2013-02-01 23:42:00,26.8,20.2,30.16,WSW,256,3.6,5.8,76,0.00,OVC,SKC,0.00,WeatherDisplay:10.37,2013-02-02 05:42:00,
2013-02-01 23:47:00,26.9,20.3,30.16,WNW,294,2.7,5.8,76,0.00,OVC,SKC,0.00,WeatherDisplay:10.37,2013-02-02 05:47:00,
2013-02-01 23:52:00,26.9,20.3,30.16,WSW,238,3.6,3.6,76,0.00,OVC,SKC,0.00,WeatherDisplay:10.37,2013-02-02 05:52:00,
2013-02-01 23:57:00,26.8,20.6,30.17,West,268,4.0,5.8,77,0.00,OVC,SKC,0.00,WeatherDisplay:10.37,2013-02-02 05:57:00,